createdAt,value
2019-02-24T00:02:27.316Z,3.57
2019-02-24T00:04:56.273Z,4.37
2019-02-24T00:07:25.421Z,4.30
2019-02-24T00:09:54.456Z,3.57
2019-02-24T00:12:23.669Z,3.13
2019-02-24T00:14:52.506Z,5.20
2019-02-24T00:17:21.363Z,3.87
2019-02-24T00:19:50.230Z,3.80
2019-02-24T00:22:19.230Z,3.13
2019-02-24T00:24:48.015Z,2.97
2019-02-24T00:27:16.945Z,4.80
2019-02-24T00:29:46.598Z,4.73
2019-02-24T00:32:15.826Z,4.13
2019-02-24T00:34:44.772Z,3.87
2019-02-24T00:37:13.822Z,4.73
2019-02-24T00:39:42.811Z,3.93
2019-02-24T00:42:11.628Z,3.50
2019-02-24T00:44:40.624Z,5.27
2019-02-24T00:47:09.686Z,3.10
2019-02-24T00:49:39.746Z,2.80
2019-02-24T00:52:08.738Z,4.80
2019-02-24T00:54:37.574Z,4.80
2019-02-24T00:57:06.415Z,5.47
2019-02-24T00:59:35.259Z,3.53
2019-02-24T01:02:04.195Z,3.73
2019-02-24T01:04:33.041Z,4.13
2019-02-24T01:07:01.838Z,3.97
2019-02-24T01:09:31.050Z,3.20
2019-02-24T01:12:00.051Z,3.87
2019-02-24T01:14:28.983Z,5.03
2019-02-24T01:16:57.813Z,4.83
2019-02-24T01:19:26.637Z,4.87
2019-02-24T01:21:55.512Z,4.00
2019-02-24T01:24:24.582Z,3.47
2019-02-24T01:26:53.625Z,3.83
2019-02-24T01:29:22.532Z,4.83
2019-02-24T01:31:51.339Z,4.67
2019-02-24T01:34:20.154Z,3.90
2019-02-24T01:36:49.143Z,5.37
2019-02-24T01:39:17.966Z,3.80
2019-02-24T01:41:46.972Z,4.47
2019-02-24T01:44:16.832Z,5.47
2019-02-24T01:46:45.680Z,5.40
2019-02-24T01:49:14.537Z,5.03
2019-02-24T01:51:43.647Z,3.83
2019-02-24T01:54:12.599Z,4.20
2019-02-24T01:56:41.390Z,4.57
2019-02-24T01:59:10.321Z,3.73
2019-02-24T02:01:39.433Z,4.40
2019-02-24T02:04:08.285Z,4.60
2019-02-24T02:06:37.146Z,3.90
2019-02-24T02:09:06.278Z,5.40
2019-02-24T02:11:35.065Z,7.83
2019-02-24T02:14:05.630Z,4.23
2019-02-24T02:16:34.530Z,5.80
2019-02-24T02:19:03.602Z,4.50
2019-02-24T02:21:32.440Z,4.67
2019-02-24T02:24:01.497Z,4.87
2019-02-24T02:26:30.542Z,4.73
2019-02-24T02:28:59.485Z,5.77
2019-02-24T02:31:28.346Z,4.53
2019-02-24T02:33:57.272Z,3.30
2019-02-24T02:36:26.164Z,4.53
2019-02-24T02:38:55.117Z,4.30
2019-02-24T02:41:24.152Z,4.43
2019-02-24T02:43:53.144Z,4.00
2019-02-24T02:46:22.164Z,4.43
2019-02-24T02:48:51.131Z,4.47
2019-02-24T02:51:20.033Z,7.00
2019-02-24T02:53:49.053Z,3.60
2019-02-24T02:56:17.946Z,5.40
2019-02-24T02:58:54.000Z,6.10
2019-02-24T03:01:17.938Z,5.03
2019-02-24T03:03:46.938Z,5.70
2019-02-24T03:06:26.172Z,5.63
2019-02-24T03:08:55.074Z,3.77
2019-02-24T03:11:24.038Z,4.23
2019-02-24T03:13:54.201Z,3.83
2019-02-24T03:16:24.685Z,4.57
2019-02-24T03:18:54.366Z,5.27
2019-02-24T03:21:23.268Z,4.43
2019-02-24T03:23:52.169Z,3.40
2019-02-24T03:26:21.095Z,5.93
2019-02-24T03:28:50.154Z,3.77
2019-02-24T03:31:19.092Z,3.53
2019-02-24T03:33:48.101Z,3.47
2019-02-24T03:36:17.066Z,4.13
2019-02-24T03:38:46.066Z,4.70
2019-02-24T03:41:14.831Z,5.43
2019-02-24T03:43:43.665Z,3.07
2019-02-24T03:46:12.544Z,3.93
2019-02-24T03:48:41.374Z,3.23
2019-02-24T03:51:10.202Z,4.50
2019-02-24T03:53:39.204Z,3.93
2019-02-24T03:56:08.043Z,5.10
2019-02-24T03:58:37.120Z,3.93
2019-02-24T04:01:06.003Z,3.57
2019-02-24T04:03:34.821Z,3.07
2019-02-24T04:06:03.630Z,3.83
2019-02-24T04:08:32.598Z,5.13
2019-02-24T04:11:01.382Z,4.83
2019-02-24T04:13:30.166Z,3.70
2019-02-24T04:15:59.184Z,3.80
2019-02-24T04:18:30.961Z,5.03
2019-02-24T04:20:59.815Z,3.57
2019-02-24T04:23:28.631Z,3.57
2019-02-24T04:25:58.019Z,3.93
2019-02-24T04:28:26.895Z,3.83
2019-02-24T04:30:56.153Z,5.37
2019-02-24T04:33:25.287Z,4.13
2019-02-24T04:35:56.103Z,3.20
2019-02-24T04:38:24.882Z,3.03
2019-02-24T04:40:53.702Z,5.33
2019-02-24T04:43:22.610Z,4.10
2019-02-24T04:45:51.580Z,4.90
2019-02-24T04:48:20.522Z,5.63
2019-02-24T04:50:49.435Z,5.20
2019-02-24T04:53:20.404Z,5.13
2019-02-24T04:55:49.383Z,5.47
2019-02-24T04:58:18.239Z,3.97
2019-02-24T05:00:47.110Z,4.37
2019-02-24T05:03:15.976Z,3.37
2019-02-24T05:05:45.164Z,4.83
2019-02-24T05:08:14.062Z,4.80
2019-02-24T05:10:42.841Z,4.03
2019-02-24T05:13:11.642Z,5.93
2019-02-24T05:15:40.437Z,7.57
2019-02-24T05:18:09.315Z,4.17
2019-02-24T05:20:38.235Z,3.30
2019-02-24T05:23:07.235Z,6.03
2019-02-24T05:25:36.145Z,4.70
2019-02-24T05:28:05.162Z,4.00
2019-02-24T05:30:34.131Z,3.40
2019-02-24T05:33:02.950Z,3.73
2019-02-24T05:35:31.899Z,4.60
2019-02-24T05:38:00.706Z,3.80
2019-02-24T05:40:29.501Z,3.53
2019-02-24T05:42:58.329Z,3.20
2019-02-24T05:45:27.301Z,5.67
2019-02-24T05:47:56.209Z,4.27
2019-02-24T05:50:28.382Z,5.07
2019-02-24T05:52:57.358Z,4.40
2019-02-24T05:55:26.361Z,3.40
2019-02-24T05:57:58.045Z,4.87
2019-02-24T06:00:26.880Z,3.63
2019-02-24T06:02:56.098Z,8.53
2019-02-24T06:05:24.984Z,3.57
2019-02-24T06:07:53.867Z,4.13
2019-02-24T06:10:22.716Z,3.63
2019-02-24T06:12:51.910Z,5.20
2019-02-24T06:15:20.774Z,2.80
2019-02-24T06:17:49.718Z,4.50
2019-02-24T06:20:18.553Z,5.00
2019-02-24T06:22:47.348Z,4.23
2019-02-24T06:25:16.148Z,4.53
2019-02-24T06:27:45.179Z,4.67
2019-02-24T06:30:14.057Z,4.50
2019-02-24T06:32:42.905Z,3.47
2019-02-24T06:35:11.903Z,6.73
2019-02-24T06:37:40.693Z,4.77
2019-02-24T06:40:09.678Z,5.10
2019-02-24T06:42:38.483Z,4.50
2019-02-24T06:45:09.161Z,4.20
2019-02-24T06:47:38.066Z,4.73
2019-02-24T06:50:10.303Z,5.77
2019-02-24T06:52:39.098Z,5.27
2019-02-24T06:55:08.646Z,5.00
2019-02-24T06:57:37.423Z,5.10
2019-02-24T07:00:14.287Z,5.53
2019-02-24T07:02:39.783Z,5.30
2019-02-24T07:05:08.976Z,6.40
2019-02-24T07:07:38.114Z,4.93
2019-02-24T07:10:07.950Z,5.07
2019-02-24T07:12:36.896Z,7.80
2019-02-24T07:15:08.299Z,3.87
2019-02-24T07:17:37.290Z,3.87
2019-02-24T07:20:07.550Z,5.70
2019-02-24T07:22:36.473Z,4.97
2019-02-24T07:25:06.212Z,5.53
2019-02-24T07:27:35.168Z,6.60
2019-02-24T07:30:05.548Z,6.10
2019-02-24T07:32:34.413Z,4.07
2019-02-24T07:35:04.030Z,4.23
2019-02-24T07:37:32.925Z,5.37
2019-02-24T07:40:01.731Z,4.30
2019-02-24T07:42:30.611Z,7.87
2019-02-24T07:45:00.045Z,6.53
2019-02-24T07:47:28.878Z,6.23
2019-02-24T07:49:57.863Z,4.13
2019-02-24T07:52:26.846Z,4.33
2019-02-24T07:54:55.963Z,4.47
2019-02-24T07:57:24.915Z,4.80
2019-02-24T07:59:53.771Z,3.60
2019-02-24T08:02:23.113Z,4.37
2019-02-24T08:04:52.020Z,4.67
2019-02-24T08:07:20.817Z,10.00
2019-02-24T08:09:50.991Z,5.07
2019-02-24T08:12:19.846Z,4.50
2019-02-24T08:14:49.121Z,7.87
2019-02-24T08:17:19.394Z,5.87
2019-02-24T08:19:48.403Z,4.87
2019-02-24T08:22:17.298Z,4.53
2019-02-24T08:24:46.965Z,4.37
2019-02-24T08:27:16.103Z,4.60
2019-02-24T08:29:45.175Z,5.07
2019-02-24T08:32:14.265Z,3.33
2019-02-24T08:34:43.152Z,7.20
2019-02-24T08:37:11.940Z,6.00
2019-02-24T08:39:40.756Z,3.80
2019-02-24T08:42:09.623Z,5.63
2019-02-24T08:44:38.777Z,3.97
2019-02-24T08:47:07.615Z,3.40
2019-02-24T08:49:36.552Z,3.87
2019-02-24T08:52:05.421Z,4.60
2019-02-24T08:54:34.584Z,5.50
2019-02-24T08:57:03.510Z,4.90
2019-02-24T08:59:32.541Z,3.97
2019-02-24T09:02:01.411Z,3.90
2019-02-24T09:04:30.412Z,4.10
2019-02-24T09:06:59.262Z,4.63
2019-02-24T09:09:30.558Z,5.33
2019-02-24T09:12:00.831Z,5.20
2019-02-24T09:14:30.902Z,4.70
2019-02-24T09:17:00.092Z,4.17
2019-02-24T09:19:29.051Z,5.47
2019-02-24T09:21:58.031Z,4.53
2019-02-24T09:24:27.035Z,4.57
2019-02-24T09:26:56.486Z,4.30
2019-02-24T09:29:25.681Z,5.00
2019-02-24T09:31:54.591Z,7.10
2019-02-24T09:34:23.705Z,5.70
2019-02-24T09:36:53.120Z,4.80
2019-02-24T09:39:22.170Z,5.30
2019-02-24T09:41:51.162Z,5.47
2019-02-24T09:44:20.012Z,4.77
2019-02-24T09:46:49.093Z,4.20
2019-02-24T09:49:18.077Z,4.90
2019-02-24T09:51:46.939Z,4.50
2019-02-24T09:54:15.849Z,4.47
2019-02-24T09:56:44.825Z,5.07
2019-02-24T09:59:14.010Z,5.27
2019-02-24T10:01:42.947Z,4.40
2019-02-24T10:04:12.027Z,3.93
2019-02-24T10:06:41.229Z,5.83
2019-02-24T10:09:10.334Z,5.17
2019-02-24T10:11:39.421Z,5.60
2019-02-24T10:14:08.302Z,6.20
2019-02-24T10:16:37.226Z,4.73
2019-02-24T10:19:06.195Z,4.90
2019-02-24T10:21:35.454Z,4.57
2019-02-24T10:24:04.391Z,5.47
2019-02-24T10:26:33.306Z,4.57
2019-02-24T10:29:02.503Z,4.07
2019-02-24T10:31:31.462Z,6.33
2019-02-24T10:34:00.594Z,4.77
2019-02-24T10:36:30.076Z,5.37
2019-02-24T10:38:58.981Z,4.93
2019-02-24T10:41:27.790Z,4.27
2019-02-24T10:43:57.991Z,4.00
2019-02-24T10:46:26.820Z,5.10
2019-02-24T10:49:03.076Z,5.57
2019-02-24T10:51:26.635Z,4.97
2019-02-24T10:53:55.913Z,4.97
2019-02-24T10:56:27.623Z,3.70
2019-02-24T10:58:56.750Z,5.07
2019-02-24T11:01:29.588Z,4.60
2019-02-24T11:03:56.561Z,4.30
2019-02-24T11:06:25.961Z,6.13
2019-02-24T11:08:54.965Z,4.23
2019-02-24T11:11:25.526Z,6.07
2019-02-24T11:13:54.423Z,4.40
2019-02-24T11:16:23.720Z,4.90
2019-02-24T11:18:53.011Z,5.97
2019-02-24T11:21:22.368Z,6.03
2019-02-24T11:23:51.180Z,4.53
2019-02-24T11:26:20.046Z,7.43
2019-02-24T11:28:49.102Z,4.57
2019-02-24T11:31:18.475Z,4.00
2019-02-24T11:33:47.624Z,5.07
2019-02-24T11:36:16.643Z,3.73
2019-02-24T11:38:45.834Z,3.97
2019-02-24T11:41:14.900Z,4.23
2019-02-24T11:43:43.860Z,4.70
2019-02-24T11:46:12.959Z,5.63
2019-02-24T11:48:42.085Z,4.37
2019-02-24T11:51:11.290Z,5.17
2019-02-24T11:53:40.075Z,4.57
2019-02-24T11:56:08.898Z,4.00
2019-02-24T11:58:40.863Z,4.57
2019-02-24T12:01:09.760Z,5.57
2019-02-24T12:03:39.512Z,6.23
2019-02-24T12:06:08.306Z,5.13
2019-02-24T12:08:37.200Z,6.13
2019-02-24T12:11:06.024Z,6.43
2019-02-24T12:13:35.107Z,5.20
2019-02-24T12:16:04.136Z,5.33
2019-02-24T12:18:33.062Z,3.97
2019-02-24T12:21:01.917Z,5.57
2019-02-24T12:23:30.812Z,4.17
2019-02-24T12:25:59.954Z,4.13
2019-02-24T12:28:28.816Z,4.80
2019-02-24T12:30:57.694Z,4.63
2019-02-24T12:33:26.521Z,4.63
2019-02-24T12:35:55.410Z,4.57
2019-02-24T12:38:24.264Z,4.43
2019-02-24T12:40:53.185Z,4.37
2019-02-24T12:43:24.359Z,5.67
2019-02-24T12:45:53.292Z,6.77
2019-02-24T12:48:22.301Z,4.83
2019-02-24T12:50:52.183Z,17.03
2019-02-24T12:53:22.597Z,4.70
2019-02-24T12:55:51.529Z,5.00
2019-02-24T12:58:20.329Z,6.00
2019-02-24T13:00:49.327Z,4.60
2019-02-24T13:03:23.912Z,5.20
2019-02-24T13:05:48.921Z,5.30
2019-02-24T13:08:17.827Z,5.20
2019-02-24T13:10:48.326Z,4.77
2019-02-24T13:13:17.428Z,5.03
2019-02-24T13:15:46.598Z,4.73
2019-02-24T13:18:15.473Z,5.30
2019-02-24T13:20:44.329Z,5.50
2019-02-24T13:23:13.288Z,5.67
2019-02-24T13:25:42.317Z,6.93
2019-02-24T13:28:11.117Z,5.07
2019-02-24T13:30:40.352Z,4.77
2019-02-24T13:33:09.294Z,5.37
2019-02-24T13:35:38.184Z,5.43
2019-02-24T13:38:08.653Z,7.60
2019-02-24T13:40:37.661Z,5.73
2019-02-24T13:43:06.816Z,6.37
2019-02-24T13:45:36.960Z,5.77
2019-02-24T13:48:05.873Z,5.30
2019-02-24T13:50:36.478Z,5.43
2019-02-24T13:53:05.899Z,5.20
2019-02-24T13:55:34.790Z,7.13
2019-02-24T13:58:03.720Z,5.23
2019-02-24T14:00:32.859Z,6.10
2019-02-24T14:03:01.635Z,6.63
2019-02-24T14:05:30.533Z,7.40
2019-02-24T14:07:59.570Z,4.93
2019-02-24T14:10:28.363Z,5.70
2019-02-24T14:12:58.955Z,5.90
2019-02-24T14:15:28.231Z,6.47
2019-02-24T14:17:57.270Z,6.13
2019-02-24T14:20:26.197Z,6.40
2019-02-24T14:22:55.134Z,7.53
2019-02-24T14:25:23.955Z,7.57
2019-02-24T14:27:53.106Z,7.43
2019-02-24T14:30:21.994Z,6.10
2019-02-24T14:32:50.847Z,6.77
2019-02-24T14:35:22.369Z,6.40
2019-02-24T14:37:51.271Z,7.60
2019-02-24T14:40:20.355Z,6.67
2019-02-24T14:42:49.360Z,6.80
2019-02-24T14:45:22.266Z,6.20
2019-02-24T14:47:51.317Z,7.87
2019-02-24T14:50:21.024Z,6.10
2019-02-24T14:52:50.256Z,5.93
2019-02-24T14:55:19.067Z,5.80
2019-02-24T14:57:47.903Z,5.13
2019-02-24T15:00:20.977Z,7.47
2019-02-24T15:02:50.045Z,5.93
2019-02-24T15:05:19.651Z,5.63
2019-02-24T15:07:48.817Z,6.47
2019-02-24T15:10:23.057Z,5.37
2019-02-24T15:12:53.464Z,5.57
2019-02-24T15:15:33.313Z,5.90
2019-02-24T15:18:02.777Z,6.33
2019-02-24T15:20:33.765Z,7.80
2019-02-24T15:23:02.760Z,7.63
2019-02-24T15:25:31.757Z,6.67
2019-02-24T15:28:03.746Z,6.97
2019-02-24T15:30:36.568Z,7.97
2019-02-24T15:33:05.658Z,6.80
2019-02-24T15:35:38.272Z,8.17
2019-02-24T15:38:06.103Z,7.57
2019-02-24T15:40:35.785Z,7.50
2019-02-24T15:43:07.387Z,8.57
2019-02-24T15:45:37.984Z,9.43
2019-02-24T15:48:07.078Z,8.10
2019-02-24T15:50:40.673Z,8.00
2019-02-24T15:53:09.599Z,8.40
2019-02-24T15:55:38.534Z,9.57
2019-02-24T15:58:08.087Z,7.50
2019-02-24T16:00:37.169Z,9.07
2019-02-24T16:03:06.220Z,7.13
2019-02-24T16:05:35.055Z,6.73
2019-02-24T16:08:04.227Z,6.87
2019-02-24T16:10:33.322Z,7.03
2019-02-24T16:13:16.663Z,7.80
2019-02-24T16:15:39.390Z,6.20
2019-02-24T16:18:08.550Z,8.57
2019-02-24T16:20:38.616Z,5.93
2019-02-24T16:23:08.345Z,6.27
2019-02-24T16:25:37.161Z,9.80
2019-02-24T16:28:06.177Z,7.20
2019-02-24T16:30:35.194Z,6.73
2019-02-24T16:33:10.171Z,6.90
2019-02-24T16:35:37.154Z,7.50
2019-02-24T16:38:07.935Z,6.97
2019-02-24T16:40:38.592Z,6.57
2019-02-24T16:43:09.656Z,6.63
2019-02-24T16:45:38.607Z,7.17
2019-02-24T16:48:08.220Z,5.70
2019-02-24T16:50:38.912Z,5.97
2019-02-24T16:53:07.751Z,5.57
2019-02-24T16:55:38.415Z,6.00
2019-02-24T16:58:10.573Z,6.97
2019-02-24T17:00:39.823Z,6.20
2019-02-24T17:03:08.755Z,5.73
2019-02-24T17:05:37.672Z,7.10
2019-02-24T17:08:06.921Z,7.90
2019-02-24T17:10:35.865Z,9.17
2019-02-24T17:13:04.759Z,6.10
2019-02-24T17:15:33.654Z,7.63
2019-02-24T17:18:02.718Z,6.53
2019-02-24T17:20:31.883Z,7.03
2019-02-24T17:23:01.030Z,9.17
2019-02-24T17:25:30.694Z,7.87
2019-02-24T17:27:59.661Z,9.48
2019-02-24T17:30:31.793Z,11.13
2019-02-24T17:33:01.511Z,13.37
2019-02-24T17:35:31.957Z,9.27
2019-02-24T17:38:00.754Z,11.77
2019-02-24T17:40:29.631Z,8.67
2019-02-24T17:42:58.495Z,10.30
2019-02-24T17:45:29.028Z,10.43
2019-02-24T17:47:57.916Z,8.03
2019-02-24T17:50:26.921Z,9.03
2019-02-24T17:52:55.700Z,9.30
2019-02-24T17:55:25.327Z,11.70
2019-02-24T17:57:54.135Z,9.87
2019-02-24T18:00:47.742Z,8.93
2019-02-24T18:03:16.894Z,9.13
2019-02-24T18:05:45.951Z,13.27
2019-02-24T18:08:14.831Z,8.70
2019-02-24T18:10:43.789Z,11.67
2019-02-24T18:13:12.617Z,10.17
2019-02-24T18:15:41.717Z,13.60
2019-02-24T18:18:10.541Z,12.90
2019-02-24T18:20:41.238Z,12.50
2019-02-24T18:23:10.449Z,13.53
2019-02-24T18:25:39.505Z,11.80
2019-02-24T18:28:08.436Z,11.50
2019-02-24T18:30:37.373Z,14.60
2019-02-24T18:33:07.047Z,13.63
2019-02-24T18:35:35.852Z,13.33
2019-02-24T18:38:04.939Z,13.83
2019-02-24T18:40:33.944Z,14.23
2019-02-24T18:43:03.661Z,12.40
2019-02-24T18:45:32.804Z,12.97
2019-02-24T18:48:01.701Z,17.83
2019-02-24T18:50:30.610Z,13.10
2019-02-24T18:52:59.509Z,14.50
2019-02-24T18:55:28.369Z,14.47
2019-02-24T18:57:57.328Z,16.57
2019-02-24T19:00:26.269Z,14.00
2019-02-24T19:02:56.006Z,17.20
2019-02-24T19:05:25.175Z,14.87
2019-02-24T19:07:54.475Z,14.37
2019-02-24T19:10:23.819Z,14.57
2019-02-24T19:12:53.418Z,14.17
2019-02-24T19:15:23.681Z,15.40
2019-02-24T19:17:52.627Z,14.70
2019-02-24T19:20:23.138Z,15.77
2019-02-24T19:22:51.938Z,14.47
2019-02-24T19:25:21.187Z,11.37
2019-02-24T19:27:50.213Z,11.20
2019-02-24T19:30:20.390Z,12.23
2019-02-24T19:32:50.970Z,12.50
2019-02-24T19:35:19.884Z,12.10
2019-02-24T19:37:48.740Z,13.67
2019-02-24T19:40:21.450Z,12.37
2019-02-24T19:42:50.348Z,10.17
2019-02-24T19:45:23.584Z,10.80
2019-02-24T19:47:52.541Z,11.20
2019-02-24T19:50:21.414Z,12.17
2019-02-24T19:52:52.861Z,11.93
2019-02-24T19:55:22.130Z,9.53
2019-02-24T19:57:50.967Z,12.03
2019-02-24T20:00:23.902Z,11.03
2019-02-24T20:02:52.805Z,13.73
2019-02-24T20:05:21.708Z,10.80
2019-02-24T20:07:50.702Z,12.77
2019-02-24T20:10:24.753Z,11.37
2019-02-24T20:12:53.972Z,10.23
2019-02-24T20:15:23.121Z,17.13
2019-02-24T20:17:52.661Z,12.13
2019-02-24T20:20:21.657Z,14.70
2019-02-24T20:22:50.638Z,14.03
2019-02-24T20:25:21.882Z,12.10
2019-02-24T20:27:50.825Z,13.47
2019-02-24T20:30:29.972Z,11.13
2019-02-24T20:32:58.941Z,14.23
2019-02-24T20:35:27.842Z,14.80
2019-02-24T20:37:56.750Z,15.03
2019-02-24T20:40:25.722Z,12.13
2019-02-24T20:42:54.650Z,15.30
2019-02-24T20:45:24.592Z,13.23
2019-02-24T20:47:54.235Z,16.03
2019-02-24T20:50:26.183Z,13.57
2019-02-24T20:52:55.672Z,16.83
2019-02-24T20:55:27.312Z,14.13
2019-02-24T20:57:56.617Z,15.93
2019-02-24T21:00:31.640Z,13.83
2019-02-24T21:03:01.374Z,15.80
2019-02-24T21:05:30.601Z,14.13
2019-02-24T21:07:59.511Z,11.47
2019-02-24T21:10:28.736Z,11.23
2019-02-24T21:12:57.764Z,10.20
2019-02-24T21:15:28.446Z,13.93
2019-02-24T21:17:57.414Z,10.77
2019-02-24T21:20:31.564Z,10.30
2019-02-24T21:23:00.524Z,10.77
2019-02-24T21:25:29.389Z,10.03
2019-02-24T21:27:58.205Z,11.43
2019-02-24T21:30:27.063Z,12.17
2019-02-24T21:32:56.165Z,12.73
2019-02-24T21:35:25.183Z,10.43
2019-02-24T21:37:54.041Z,11.10
2019-02-24T21:40:24.602Z,13.60
2019-02-24T21:42:53.516Z,11.23
2019-02-24T21:45:28.961Z,12.47
2019-02-24T21:47:58.186Z,11.63
2019-02-24T21:50:28.817Z,10.83
2019-02-24T21:52:57.756Z,11.27
2019-02-24T21:55:28.281Z,11.00
2019-02-24T21:57:57.315Z,11.20
2019-02-24T22:00:27.250Z,11.30
2019-02-24T22:02:56.055Z,11.47
2019-02-24T22:05:25.168Z,9.37
2019-02-24T22:07:55.796Z,10.37
2019-02-24T22:10:25.196Z,9.33
2019-02-24T22:12:54.338Z,16.60
2019-02-24T22:15:24.631Z,12.60
2019-02-24T22:17:53.675Z,11.03
2019-02-24T22:20:22.729Z,10.30
2019-02-24T22:22:51.571Z,11.83
2019-02-24T22:25:20.858Z,12.03
2019-02-24T22:27:49.717Z,10.80
2019-02-24T22:30:22.790Z,10.07
2019-02-24T22:32:53.542Z,10.43
2019-02-24T22:35:22.342Z,9.07
2019-02-24T22:37:51.418Z,10.50
2019-02-24T22:40:20.205Z,12.20
2019-02-24T22:42:49.315Z,10.63
2019-02-24T22:45:19.600Z,9.53
2019-02-24T22:47:48.462Z,11.07
2019-02-24T22:50:17.391Z,9.30
2019-02-24T22:52:46.755Z,11.07
2019-02-24T22:55:16.779Z,12.53
2019-02-24T22:57:45.685Z,11.37
2019-02-24T23:00:45.596Z,9.77
2019-02-24T23:03:14.584Z,10.60
2019-02-24T23:05:43.530Z,9.03
2019-02-24T23:08:12.695Z,10.47
2019-02-24T23:10:41.955Z,9.60
2019-02-24T23:13:10.967Z,8.57
2019-02-24T23:15:41.194Z,8.73
2019-02-24T23:18:12.100Z,9.33
2019-02-24T23:20:42.688Z,8.93
2019-02-24T23:23:13.959Z,9.00
2019-02-24T23:25:42.883Z,10.77
2019-02-24T23:28:14.818Z,10.30
2019-02-24T23:30:46.050Z,10.60
2019-02-24T23:33:17.472Z,8.67
2019-02-24T23:35:47.979Z,6.50
2019-02-24T23:38:17.158Z,6.67
2019-02-24T23:40:49.064Z,6.97
2019-02-24T23:43:18.012Z,9.80
2019-02-24T23:45:46.895Z,7.00
2019-02-24T23:48:16.863Z,8.97
2019-02-24T23:50:45.767Z,7.93
2019-02-24T23:53:14.905Z,9.40
2019-02-24T23:55:47.171Z,8.00
2019-02-24T23:58:16.396Z,8.03
